CAL63 RCTP-LOWW
Flight info
| Callsign | CAL63 |
|---|---|
| Flight time | N/A |
| Altitude | 32000 |
| Route | CHALI1A CHALI T3 MKG A1 KADLO T1 KAPLI DCT ALLEY V10 SIKOU/K0933S0980 R339 WUY R474 TEBAK/K0928F320 R474 NOB W21 BQ B214 LADON/N0500F320 B214 AKSAG B465 APAGO/N0496F340 B465 CEA R460 LKN M890 SULOM A466 DI N644 VUVEN/N0493F360 N644 LEMOD A909 RODAR N644 ADEKI DCT BADIR DCT LAGAS DCT FOQUS DCT SARPI/N0473F380 UM10 GOKPA UL746 ODERO L746 LUGEB DCT BUDOP DCT BALUX DCT TORNO DCT NATEX NATEX2W |
| Aircraft | B77W/H-SDE1E2E3FGHIJ2J3J5M1P2RWY/LB1D1 |
Departure
| Time | N/A |
|---|---|
| Airport | Taiwan Taoyuan International Airport (RCTP) |
Arrival
| Time | 2026-05-01 07:34 |
|---|---|
| Airport | Vienna International Airport (LOWW) |
| Time | Latitude | Longitude | Altitude | Speed | Heading |
|---|---|---|---|---|---|
| 2026-05-01 07:23 | 47.72033 | 17.13646 | 13717 ft | 368 kts | 266° |
| 2026-05-01 07:23 | 47.71389 | 17.06293 | 11780 ft | 350 kts | 266° |
| 2026-05-01 07:24 | 47.71081 | 17.02748 | 10828 ft | 342 kts | 265° |
| 2026-05-01 07:24 | 47.70784 | 16.99294 | 9710 ft | 332 kts | 264° |
| 2026-05-01 07:24 | 47.70501 | 16.95983 | 9260 ft | 318 kts | 265° |
| 2026-05-01 07:24 | 47.70222 | 16.92764 | 8458 ft | 311 kts | 265° |
| 2026-05-01 07:25 | 47.69950 | 16.89627 | 7803 ft | 300 kts | 265° |
| 2026-05-01 07:25 | 47.69688 | 16.86630 | 7314 ft | 286 kts | 265° |
| 2026-05-01 07:25 | 47.69437 | 16.83764 | 6828 ft | 275 kts | 265° |
| 2026-05-01 07:25 | 47.69194 | 16.81007 | 6327 ft | 265 kts | 265° |
| 2026-05-01 07:26 | 47.69218 | 16.78343 | 5735 ft | 256 kts | 291° |
| 2026-05-01 07:26 | 47.70092 | 16.76199 | 5807 ft | 241 kts | 319° |
| 2026-05-01 07:26 | 47.71429 | 16.74689 | 5729 ft | 242 kts | 339° |
| 2026-05-01 07:26 | 47.73002 | 16.73875 | 5554 ft | 239 kts | 348° |
| 2026-05-01 07:27 | 47.74603 | 16.73249 | 5392 ft | 236 kts | 348° |
| 2026-05-01 07:27 | 47.76181 | 16.72631 | 5205 ft | 233 kts | 348° |
| 2026-05-01 07:27 | 47.77732 | 16.72028 | 5032 ft | 229 kts | 348° |
| 2026-05-01 07:27 | 47.79264 | 16.71415 | 4873 ft | 227 kts | 347° |
| 2026-05-01 07:28 | 47.80784 | 16.70797 | 4706 ft | 227 kts | 347° |
| 2026-05-01 07:28 | 47.82301 | 16.70173 | 4546 ft | 226 kts | 347° |
| 2026-05-01 07:28 | 47.83807 | 16.69553 | 4386 ft | 225 kts | 347° |
| 2026-05-01 07:28 | 47.85320 | 16.68929 | 4232 ft | 226 kts | 347° |
| 2026-05-01 07:29 | 47.86844 | 16.68314 | 4079 ft | 228 kts | 347° |
| 2026-05-01 07:29 | 47.88375 | 16.67695 | 3909 ft | 228 kts | 347° |
| 2026-05-01 07:29 | 47.89902 | 16.67082 | 3739 ft | 227 kts | 347° |
| 2026-05-01 07:29 | 47.91426 | 16.66471 | 3580 ft | 227 kts | 346° |
| 2026-05-01 07:30 | 47.92926 | 16.65848 | 3389 ft | 225 kts | 346° |
| 2026-05-01 07:30 | 47.94411 | 16.65223 | 3234 ft | 218 kts | 346° |
| 2026-05-01 07:30 | 47.95833 | 16.64621 | 3157 ft | 206 kts | 346° |
| 2026-05-01 07:30 | 47.97170 | 16.64063 | 3032 ft | 193 kts | 346° |
| 2026-05-01 07:31 | 47.98408 | 16.63539 | 2833 ft | 177 kts | 346° |
| 2026-05-01 07:31 | 48.01638 | 16.62178 | 2146 ft | 147 kts | 346° |
| 2026-05-01 07:32 | 48.03517 | 16.61387 | 1740 ft | 130 kts | 346° |
| 2026-05-01 07:32 | 48.04402 | 16.61014 | 1557 ft | 135 kts | 345° |
| 2026-05-01 07:33 | 48.06198 | 16.60258 | 1161 ft | 133 kts | 345° |
| 2026-05-01 07:33 | 48.07103 | 16.59874 | 1004 ft | 138 kts | 345° |
| 2026-05-01 07:33 | 48.08939 | 16.59098 | 644 ft | 138 kts | 344° |
| 2026-05-01 07:34 | 48.09794 | 16.58738 | 623 ft | 107 kts | 345° |
| 2026-05-01 07:34 | 48.10793 | 16.58319 | 629 ft | 60 kts | 344° |
| 2026-05-01 07:34 | 48.11025 | 16.58111 | 620 ft | 29 kts | 302° |
| 2026-05-01 07:35 | 48.11115 | 16.57846 | 626 ft | 28 kts | 295° |
| 2026-05-01 07:35 | 48.11193 | 16.57603 | 627 ft | 24 kts | 296° |
| 2026-05-01 07:35 | 48.11267 | 16.57379 | 626 ft | 24 kts | 296° |
| 2026-05-01 07:35 | 48.11341 | 16.57150 | 621 ft | 24 kts | 296° |
| 2026-05-01 07:36 | 48.11416 | 16.56922 | 622 ft | 24 kts | 296° |
| 2026-05-01 07:36 | 48.11490 | 16.56695 | 620 ft | 24 kts | 295° |
| 2026-05-01 07:36 | 48.11564 | 16.56467 | 625 ft | 24 kts | 296° |
| 2026-05-01 07:36 | 48.11639 | 16.56236 | 626 ft | 24 kts | 296° |
| 2026-05-01 07:37 | 48.11740 | 16.55927 | 622 ft | 14 kts | 296° |
| 2026-05-01 07:37 | 48.11777 | 16.55865 | 627 ft | 6 kts | 1° |
| 2026-05-01 07:37 | 48.11796 | 16.55905 | 624 ft | 5 kts | 73° |
| 2026-05-01 07:38 | 48.11803 | 16.55956 | 625 ft | 4 kts | 78° |
| 2026-05-01 07:38 | 48.11807 | 16.55980 | 627 ft | 1 kts | 79° |
| 2026-05-01 07:38 | 48.11807 | 16.55984 | 627 ft | 0 kts | 79° |